sensor_id;sensor_type;location;lat;lon;timestamp;pressure;altitude;pressure_sealevel;temperature;humidity
17373;BME280;8803;48.116;11.590;2023-07-31T00:01:52;95726.00;;;22.05;56.79
17373;BME280;8803;48.116;11.590;2023-07-31T00:03:56;95719.66;;;22.02;56.82
17373;BME280;8803;48.116;11.590;2023-07-31T00:08:12;95713.69;;;22.03;57.00
17373;BME280;8803;48.116;11.590;2023-07-31T00:10:16;95718.91;;;21.97;57.06
17373;BME280;8803;48.116;11.590;2023-07-31T00:14:32;95718.07;;;21.97;57.13
17373;BME280;8803;48.116;11.590;2023-07-31T00:16:36;95719.41;;;21.90;57.25
17373;BME280;8803;48.116;11.590;2023-07-31T00:18:39;95713.88;;;21.88;57.08
17373;BME280;8803;48.116;11.590;2023-07-31T00:22:56;95716.06;;;21.88;57.34
17373;BME280;8803;48.116;11.590;2023-07-31T00:25:00;95711.47;;;21.82;57.44
17373;BME280;8803;48.116;11.590;2023-07-31T00:29:17;95708.77;;;21.82;57.49
17373;BME280;8803;48.116;11.590;2023-07-31T00:31:21;95711.09;;;21.75;57.48
17373;BME280;8803;48.116;11.590;2023-07-31T00:35:37;95708.92;;;21.74;57.80
17373;BME280;8803;48.116;11.590;2023-07-31T00:37:41;95708.69;;;21.69;57.74
17373;BME280;8803;48.116;11.590;2023-07-31T00:41:58;95699.53;;;21.70;57.87
17373;BME280;8803;48.116;11.590;2023-07-31T00:46:14;95701.06;;;21.69;57.96
17373;BME280;8803;48.116;11.590;2023-07-31T00:48:18;95697.61;;;21.64;57.89
17373;BME280;8803;48.116;11.590;2023-07-31T00:50:23;95696.47;;;21.63;57.98
17373;BME280;8803;48.116;11.590;2023-07-31T00:54:40;95687.20;;;21.61;58.13
17373;BME280;8803;48.116;11.590;2023-07-31T00:56:46;95701.05;;;21.56;58.12
17373;BME280;8803;48.116;11.590;2023-07-31T00:58:51;95705.18;;;21.52;58.22
17373;BME280;8803;48.116;11.590;2023-07-31T01:00:54;95691.33;;;21.51;58.35
17373;BME280;8803;48.116;11.590;2023-07-31T01:02:58;95693.92;;;21.48;58.58
17373;BME280;8803;48.116;11.590;2023-07-31T01:05:04;95697.69;;;21.47;58.56
17373;BME280;8803;48.116;11.590;2023-07-31T01:11:43;95692.56;;;21.48;58.83
17373;BME280;8803;48.116;11.590;2023-07-31T01:13:47;95689.95;;;21.44;58.75
17373;BME280;8803;48.116;11.590;2023-07-31T01:15:51;95687.63;;;21.41;58.69
17373;BME280;8803;48.116;11.590;2023-07-31T01:20:11;95675.05;;;21.44;58.91
17373;BME280;8803;48.116;11.590;2023-07-31T01:22:30;95684.75;;;21.43;58.77
17373;BME280;8803;48.116;11.590;2023-07-31T01:26:55;95680.69;;;21.43;58.92
17373;BME280;8803;48.116;11.590;2023-07-31T01:29:01;95683.48;;;21.39;58.90
17373;BME280;8803;48.116;11.590;2023-07-31T01:33:21;95670.87;;;21.42;59.04
17373;BME280;8803;48.116;11.590;2023-07-31T01:35:25;95669.09;;;21.38;58.97
17373;BME280;8803;48.116;11.590;2023-07-31T01:37:30;95668.04;;;21.39;58.97
17373;BME280;8803;48.116;11.590;2023-07-31T01:39:34;95662.11;;;21.40;58.84
17373;BME280;8803;48.116;11.590;2023-07-31T01:41:38;95662.44;;;21.41;58.85
17373;BME280;8803;48.116;11.590;2023-07-31T01:43:42;95667.02;;;21.40;58.82
17373;BME280;8803;48.116;11.590;2023-07-31T01:45:45;95663.80;;;21.41;58.99
17373;BME280;8803;48.116;11.590;2023-07-31T01:47:49;95667.23;;;21.39;58.88
17373;BME280;8803;48.116;11.590;2023-07-31T01:49:53;95653.36;;;21.38;59.06
17373;BME280;8803;48.116;11.590;2023-07-31T01:51:57;95666.05;;;21.37;59.07
17373;BME280;8803;48.116;11.590;2023-07-31T01:54:00;95657.92;;;21.37;59.10
17373;BME280;8803;48.116;11.590;2023-07-31T01:58:17;95655.13;;;21.41;59.25
17373;BME280;8803;48.116;11.590;2023-07-31T02:02:34;95652.02;;;21.44;59.25
17373;BME280;8803;48.116;11.590;2023-07-31T02:04:37;95651.79;;;21.39;59.14
17373;BME280;8803;48.116;11.590;2023-07-31T02:06:42;95654.83;;;21.40;59.14
17373;BME280;8803;48.116;11.590;2023-07-31T02:08:46;95658.38;;;21.41;59.12
17373;BME280;8803;48.116;11.590;2023-07-31T02:10:50;95647.21;;;21.40;59.21
17373;BME280;8803;48.116;11.590;2023-07-31T02:12:54;95646.37;;;21.39;59.25
17373;BME280;8803;48.116;11.590;2023-07-31T02:15:00;95648.27;;;21.39;59.37
17373;BME280;8803;48.116;11.590;2023-07-31T02:19:17;95641.70;;;21.44;59.17
17373;BME280;8803;48.116;11.590;2023-07-31T02:21:20;95643.78;;;21.42;59.15
17373;BME280;8803;48.116;11.590;2023-07-31T02:23:24;95635.98;;;21.43;59.07
17373;BME280;8803;48.116;11.590;2023-07-31T02:25:28;95635.14;;;21.42;59.02
17373;BME280;8803;48.116;11.590;2023-07-31T02:27:32;95629.21;;;21.43;59.28
17373;BME280;8803;48.116;11.590;2023-07-31T02:29:35;95630.56;;;21.43;59.21
17373;BME280;8803;48.116;11.590;2023-07-31T02:31:39;95623.97;;;21.41;59.27
17373;BME280;8803;48.116;11.590;2023-07-31T02:33:43;95629.09;;;21.40;59.40
17373;BME280;8803;48.116;11.590;2023-07-31T02:35:47;95630.96;;;21.40;59.37
17373;BME280;8803;48.116;11.590;2023-07-31T02:37:51;95629.61;;;21.40;59.35
17373;BME280;8803;48.116;11.590;2023-07-31T02:39:55;95627.23;;;21.41;59.22
17373;BME280;8803;48.116;11.590;2023-07-31T02:41:59;95621.27;;;21.41;59.23
17373;BME280;8803;48.116;11.590;2023-07-31T02:46:16;95614.42;;;21.45;59.38
17373;BME280;8803;48.116;11.590;2023-07-31T02:48:19;95618.05;;;21.42;59.53
17373;BME280;8803;48.116;11.590;2023-07-31T02:50:23;95618.77;;;21.40;59.46
17373;BME280;8803;48.116;11.590;2023-07-31T02:52:27;95614.19;;;21.40;59.68
17373;BME280;8803;48.116;11.590;2023-07-31T02:54:31;95609.50;;;21.38;59.82
17373;BME280;8803;48.116;11.590;2023-07-31T02:56:34;95608.55;;;21.35;59.66
17373;BME280;8803;48.116;11.590;2023-07-31T02:58:38;95608.25;;;21.34;59.77
17373;BME280;8803;48.116;11.590;2023-07-31T03:02:56;95599.61;;;21.35;59.96
17373;BME280;8803;48.116;11.590;2023-07-31T03:05:00;95607.16;;;21.29;59.77
17373;BME280;8803;48.116;11.590;2023-07-31T03:09:17;95600.61;;;21.27;60.13
17373;BME280;8803;48.116;11.590;2023-07-31T03:11:21;95608.53;;;21.22;60.05
17373;BME280;8803;48.116;11.590;2023-07-31T03:15:37;95593.81;;;21.20;60.18
17373;BME280;8803;48.116;11.590;2023-07-31T03:17:41;95596.83;;;21.15;60.34
17373;BME280;8803;48.116;11.590;2023-07-31T03:19:44;95604.63;;;21.14;60.45
17373;BME280;8803;48.116;11.590;2023-07-31T03:24:04;95594.34;;;21.13;60.73
17373;BME280;8803;48.116;11.590;2023-07-31T03:26:09;95597.13;;;21.09;60.58
17373;BME280;8803;48.116;11.590;2023-07-31T03:28:13;95595.84;;;21.05;60.80
17373;BME280;8803;48.116;11.590;2023-07-31T03:30:16;95591.16;;;21.03;60.91
17373;BME280;8803;48.116;11.590;2023-07-31T03:32:20;95598.61;;;21.01;60.99
17373;BME280;8803;48.116;11.590;2023-07-31T03:34:24;95603.39;;;20.99;61.36
17373;BME280;8803;48.116;11.590;2023-07-31T03:36:28;95605.67;;;20.96;61.30
17373;BME280;8803;48.116;11.590;2023-07-31T03:38:32;95610.97;;;20.93;61.26
17373;BME280;8803;48.116;11.590;2023-07-31T03:40:36;95614.61;;;20.90;61.34
17373;BME280;8803;48.116;11.590;2023-07-31T03:42:40;95611.91;;;20.90;61.53
17373;BME280;8803;48.116;11.590;2023-07-31T03:46:56;95610.85;;;20.91;61.69
17373;BME280;8803;48.116;11.590;2023-07-31T03:48:59;95613.64;;;20.87;61.87
17373;BME280;8803;48.116;11.590;2023-07-31T03:51:03;95617.92;;;20.85;61.74
17373;BME280;8803;48.116;11.590;2023-07-31T03:53:07;95609.47;;;20.84;62.18
17373;BME280;8803;48.116;11.590;2023-07-31T03:55:11;95614.25;;;20.82;62.00
17373;BME280;8803;48.116;11.590;2023-07-31T03:57:15;95616.95;;;20.82;61.84
17373;BME280;8803;48.116;11.590;2023-07-31T03:59:18;95618.84;;;20.82;62.27
17373;BME280;8803;48.116;11.590;2023-07-31T04:03:38;95613.23;;;20.83;62.43
17373;BME280;8803;48.116;11.590;2023-07-31T04:05:41;95620.92;;;20.80;62.44
17373;BME280;8803;48.116;11.590;2023-07-31T04:09:59;95614.88;;;20.84;62.65
17373;BME280;8803;48.116;11.590;2023-07-31T04:12:04;95613.94;;;20.81;62.87
17373;BME280;8803;48.116;11.590;2023-07-31T04:16:20;95599.69;;;20.83;62.62
17373;BME280;8803;48.116;11.590;2023-07-31T04:18:25;95606.34;;;20.81;63.16
17373;BME280;8803;48.116;11.590;2023-07-31T04:22:42;95607.81;;;20.83;63.32
17373;BME280;8803;48.116;11.590;2023-07-31T04:24:46;95610.39;;;20.81;63.51
17373;BME280;8803;48.116;11.590;2023-07-31T04:29:02;95609.28;;;20.86;63.72
17373;BME280;8803;48.116;11.590;2023-07-31T04:31:06;95609.38;;;20.82;63.50
17373;BME280;8803;48.116;11.590;2023-07-31T04:35:22;95606.16;;;20.89;63.59
17373;BME280;8803;48.116;11.590;2023-07-31T04:37:26;95611.06;;;20.89;63.64
17373;BME280;8803;48.116;11.590;2023-07-31T04:39:30;95612.02;;;20.92;63.35
17373;BME280;8803;48.116;11.590;2023-07-31T04:41:34;95604.72;;;20.93;63.98
17373;BME280;8803;48.116;11.590;2023-07-31T04:43:38;95608.17;;;20.97;63.81
17373;BME280;8803;48.116;11.590;2023-07-31T04:45:45;95595.27;;;20.99;63.30
17373;BME280;8803;48.116;11.590;2023-07-31T04:47:50;95594.48;;;21.05;63.08
17373;BME280;8803;48.116;11.590;2023-07-31T04:49:54;95599.75;;;21.13;63.06
17373;BME280;8803;48.116;11.590;2023-07-31T04:51:58;95601.13;;;21.20;62.59
17373;BME280;8803;48.116;11.590;2023-07-31T04:54:02;95595.82;;;21.29;62.40
17373;BME280;8803;48.116;11.590;2023-07-31T04:56:06;95596.05;;;21.34;62.70
17373;BME280;8803;48.116;11.590;2023-07-31T05:00:22;95585.98;;;21.45;62.89
17373;BME280;8803;48.116;11.590;2023-07-31T05:02:26;95583.51;;;21.70;61.98
17373;BME280;8803;48.116;11.590;2023-07-31T05:04:30;95587.35;;;22.50;60.43
17373;BME280;8803;48.116;11.590;2023-07-31T05:06:34;95577.72;;;23.46;57.62
17373;BME280;8803;48.116;11.590;2023-07-31T05:08:38;95583.98;;;24.43;54.87
17373;BME280;8803;48.116;11.590;2023-07-31T05:10:41;95576.36;;;25.33;52.45
17373;BME280;8803;48.116;11.590;2023-07-31T05:12:45;95576.38;;;26.04;50.75
17373;BME280;8803;48.116;11.590;2023-07-31T05:14:49;95575.39;;;27.12;48.32
17373;BME280;8803;48.116;11.590;2023-07-31T05:16:53;95575.39;;;27.12;48.32
17373;BME280;8803;48.116;11.590;2023-07-31T05:18:56;95572.53;;;28.00;46.47
17373;BME280;8803;48.116;11.590;2023-07-31T05:21:00;95572.89;;;28.89;44.45
17373;BME280;8803;48.116;11.590;2023-07-31T05:23:04;95576.17;;;29.51;42.93
17373;BME280;8803;48.116;11.590;2023-07-31T05:25:09;95578.69;;;30.04;41.71
17373;BME280;8803;48.116;11.590;2023-07-31T05:27:13;95579.86;;;30.39;40.83
17373;BME280;8803;48.116;11.590;2023-07-31T05:31:32;95572.75;;;30.43;40.41
17373;BME280;8803;48.116;11.590;2023-07-31T05:33:36;95576.06;;;30.14;40.48
17373;BME280;8803;48.116;11.590;2023-07-31T05:35:39;95569.48;;;29.88;40.71
17373;BME280;8803;48.116;11.590;2023-07-31T05:37:43;95569.66;;;29.57;41.18
17373;BME280;8803;48.116;11.590;2023-07-31T05:39:47;95570.38;;;29.26;41.63
17373;BME280;8803;48.116;11.590;2023-07-31T05:41:51;95574.48;;;29.05;41.84
17373;BME280;8803;48.116;11.590;2023-07-31T05:43:55;95563.91;;;28.94;42.13
17373;BME280;8803;48.116;11.590;2023-07-31T05:45:58;95572.31;;;28.87;42.31
17373;BME280;8803;48.116;11.590;2023-07-31T05:50:17;95559.76;;;28.72;42.89
17373;BME280;8803;48.116;11.590;2023-07-31T05:52:20;95573.98;;;28.55;42.98
17373;BME280;8803;48.116;11.590;2023-07-31T05:56:37;95564.20;;;28.09;43.85
17373;BME280;8803;48.116;11.590;2023-07-31T06:00:53;95563.41;;;27.53;44.46
17373;BME280;8803;48.116;11.590;2023-07-31T06:02:57;95561.73;;;27.26;44.84
17373;BME280;8803;48.116;11.590;2023-07-31T06:05:01;95567.64;;;27.06;45.16
17373;BME280;8803;48.116;11.590;2023-07-31T06:07:07;95566.19;;;26.90;45.50
17373;BME280;8803;48.116;11.590;2023-07-31T06:09:10;95561.38;;;26.71;45.97
17373;BME280;8803;48.116;11.590;2023-07-31T06:11:14;95562.08;;;26.55;46.36
17373;BME280;8803;48.116;11.590;2023-07-31T06:13:18;95566.38;;;26.39;46.69
17373;BME280;8803;48.116;11.590;2023-07-31T06:15:22;95564.22;;;26.30;46.88
17373;BME280;8803;48.116;11.590;2023-07-31T06:19:39;95566.78;;;26.45;47.21
17373;BME280;8803;48.116;11.590;2023-07-31T06:21:43;95565.83;;;26.51;46.90
17373;BME280;8803;48.116;11.590;2023-07-31T06:26:00;95568.61;;;26.66;46.64
17373;BME280;8803;48.116;11.590;2023-07-31T06:28:04;95576.98;;;26.61;46.33
17373;BME280;8803;48.116;11.590;2023-07-31T06:32:21;95576.70;;;26.60;46.41
17373;BME280;8803;48.116;11.590;2023-07-31T06:34:25;95578.99;;;26.54;46.40
17373;BME280;8803;48.116;11.590;2023-07-31T06:38:42;95581.63;;;26.49;46.58
17373;BME280;8803;48.116;11.590;2023-07-31T06:40:45;95585.88;;;26.34;46.56
17373;BME280;8803;48.116;11.590;2023-07-31T06:42:49;95583.33;;;26.18;46.65
17373;BME280;8803;48.116;11.590;2023-07-31T06:44:53;95578.05;;;26.05;47.14
17373;BME280;8803;48.116;11.590;2023-07-31T06:46:57;95573.88;;;25.91;47.36
17373;BME280;8803;48.116;11.590;2023-07-31T06:51:13;95574.34;;;25.67;47.87
17373;BME280;8803;48.116;11.590;2023-07-31T06:53:20;95586.52;;;25.53;47.98
17373;BME280;8803;48.116;11.590;2023-07-31T06:55:25;95579.47;;;25.46;48.24
17373;BME280;8803;48.116;11.590;2023-07-31T06:57:29;95578.92;;;25.37;48.26
17373;BME280;8803;48.116;11.590;2023-07-31T07:01:48;95567.30;;;25.30;48.78
17373;BME280;8803;48.116;11.590;2023-07-31T07:03:52;95569.27;;;25.23;48.86
17373;BME280;8803;48.116;11.590;2023-07-31T07:05:55;95573.20;;;25.18;49.01
17373;BME280;8803;48.116;11.590;2023-07-31T07:07:59;95559.13;;;25.12;49.02
17373;BME280;8803;48.116;11.590;2023-07-31T07:12:17;95559.81;;;25.07;49.39
17373;BME280;8803;48.116;11.590;2023-07-31T07:14:21;95567.78;;;25.00;49.40
17373;BME280;8803;48.116;11.590;2023-07-31T07:16:25;95556.20;;;24.95;49.51
17373;BME280;8803;48.116;11.590;2023-07-31T07:18:29;95556.20;;;24.95;49.51
17373;BME280;8803;48.116;11.590;2023-07-31T07:20:32;95559.53;;;24.97;49.61
17373;BME280;8803;48.116;11.590;2023-07-31T07:22:36;95562.38;;;25.21;49.09
17373;BME280;8803;48.116;11.590;2023-07-31T07:24:41;95562.38;;;25.21;49.09
17373;BME280;8803;48.116;11.590;2023-07-31T07:26:45;95557.98;;;25.67;48.45
17373;BME280;8803;48.116;11.590;2023-07-31T07:28:49;95556.45;;;26.24;47.19
17373;BME280;8803;48.116;11.590;2023-07-31T07:30:53;95555.60;;;26.82;45.71
17373;BME280;8803;48.116;11.590;2023-07-31T07:32:57;95551.39;;;27.40;44.11
17373;BME280;8803;48.116;11.590;2023-07-31T07:35:01;95561.62;;;27.75;43.53
17373;BME280;8803;48.116;11.590;2023-07-31T07:37:06;95552.73;;;27.82;43.00
17373;BME280;8803;48.116;11.590;2023-07-31T07:41:23;95543.94;;;28.77;41.02
17373;BME280;8803;48.116;11.590;2023-07-31T07:43:27;95545.70;;;28.88;40.44
17373;BME280;8803;48.116;11.590;2023-07-31T07:47:43;95539.41;;;29.28;39.62
17373;BME280;8803;48.116;11.590;2023-07-31T07:49:47;95535.64;;;29.34;39.48
17373;BME280;8803;48.116;11.590;2023-07-31T07:54:04;95530.02;;;29.46;38.27
17373;BME280;8803;48.116;11.590;2023-07-31T07:56:08;95530.86;;;29.46;38.77
17373;BME280;8803;48.116;11.590;2023-07-31T07:58:12;95534.14;;;29.46;38.93
17373;BME280;8803;48.116;11.590;2023-07-31T08:02:29;95517.38;;;29.42;39.11
17373;BME280;8803;48.116;11.590;2023-07-31T08:04:33;95516.09;;;29.28;38.58
17373;BME280;8803;48.116;11.590;2023-07-31T08:06:37;95506.16;;;29.22;38.52
17373;BME280;8803;48.116;11.590;2023-07-31T08:08:41;95502.30;;;29.21;38.76
17373;BME280;8803;48.116;11.590;2023-07-31T08:10:45;95506.11;;;29.17;38.92
17373;BME280;8803;48.116;11.590;2023-07-31T08:12:49;95505.02;;;29.18;39.31
17373;BME280;8803;48.116;11.590;2023-07-31T08:14:52;95509.77;;;29.25;39.42
17373;BME280;8803;48.116;11.590;2023-07-31T08:16:56;95506.27;;;29.32;39.03
17373;BME280;8803;48.116;11.590;2023-07-31T08:19:00;95511.89;;;29.42;38.95
17373;BME280;8803;48.116;11.590;2023-07-31T08:21:04;95507.67;;;29.59;38.25
17373;BME280;8803;48.116;11.590;2023-07-31T08:23:07;95514.09;;;29.72;37.60
17373;BME280;8803;48.116;11.590;2023-07-31T08:25:11;95519.41;;;29.79;37.66
17373;BME280;8803;48.116;11.590;2023-07-31T08:27:15;95513.92;;;29.76;37.14
17373;BME280;8803;48.116;11.590;2023-07-31T08:31:31;95505.09;;;29.74;37.74
17373;BME280;8803;48.116;11.590;2023-07-31T08:33:35;95511.58;;;29.68;37.63
17373;BME280;8803;48.116;11.590;2023-07-31T08:35:39;95511.22;;;29.59;37.29
17373;BME280;8803;48.116;11.590;2023-07-31T08:37:42;95504.56;;;29.50;37.45
17373;BME280;8803;48.116;11.590;2023-07-31T08:39:46;95517.30;;;29.37;37.59
17373;BME280;8803;48.116;11.590;2023-07-31T08:41:50;95512.41;;;29.18;37.58
17373;BME280;8803;48.116;11.590;2023-07-31T08:43:56;95504.45;;;28.97;37.77
17373;BME280;8803;48.116;11.590;2023-07-31T08:46:00;95509.67;;;28.77;37.96
17373;BME280;8803;48.116;11.590;2023-07-31T08:48:06;95504.92;;;28.53;37.84
17373;BME280;8803;48.116;11.590;2023-07-31T08:50:11;95506.32;;;28.37;38.36
17373;BME280;8803;48.116;11.590;2023-07-31T08:52:16;95509.08;;;28.20;38.66
17373;BME280;8803;48.116;11.590;2023-07-31T08:54:19;95507.99;;;28.04;38.93
17373;BME280;8803;48.116;11.590;2023-07-31T08:56:24;95505.80;;;27.90;39.27
17373;BME280;8803;48.116;11.590;2023-07-31T09:00:40;95501.16;;;27.60;40.07
17373;BME280;8803;48.116;11.590;2023-07-31T09:02:48;95494.27;;;27.41;40.48
17373;BME280;8803;48.116;11.590;2023-07-31T09:04:52;95505.94;;;27.24;40.69
17373;BME280;8803;48.116;11.590;2023-07-31T09:07:00;95504.01;;;26.97;40.80
17373;BME280;8803;48.116;11.590;2023-07-31T09:09:03;95501.45;;;26.79;41.13
17373;BME280;8803;48.116;11.590;2023-07-31T09:11:07;95507.45;;;26.67;41.37
17373;BME280;8803;48.116;11.590;2023-07-31T09:15:25;95498.34;;;26.49;42.28
17373;BME280;8803;48.116;11.590;2023-07-31T09:17:33;95504.63;;;26.38;42.44
17373;BME280;8803;48.116;11.590;2023-07-31T09:19:38;95503.38;;;26.32;42.35
17373;BME280;8803;48.116;11.590;2023-07-31T09:21:48;95497.28;;;26.39;42.21
17373;BME280;8803;48.116;11.590;2023-07-31T09:26:04;95494.48;;;26.48;42.66
17373;BME280;8803;48.116;11.590;2023-07-31T09:28:09;95498.27;;;26.47;42.36
17373;BME280;8803;48.116;11.590;2023-07-31T09:32:25;95482.16;;;26.71;42.14
17373;BME280;8803;48.116;11.590;2023-07-31T09:34:36;95489.35;;;26.75;41.95
17373;BME280;8803;48.116;11.590;2023-07-31T09:36:42;95488.97;;;26.83;41.98
17373;BME280;8803;48.116;11.590;2023-07-31T09:38:45;95494.95;;;26.94;42.01
17373;BME280;8803;48.116;11.590;2023-07-31T09:40:49;95490.98;;;27.01;41.68
17373;BME280;8803;48.116;11.590;2023-07-31T09:43:22;95489.73;;;27.06;41.82
17373;BME280;8803;48.116;11.590;2023-07-31T09:45:27;95484.41;;;27.14;41.94
17373;BME280;8803;48.116;11.590;2023-07-31T09:47:31;95484.91;;;27.25;41.34
17373;BME280;8803;48.116;11.590;2023-07-31T09:49:35;95482.97;;;27.37;41.02
17373;BME280;8803;48.116;11.590;2023-07-31T09:51:40;95481.25;;;27.48;41.09
17373;BME280;8803;48.116;11.590;2023-07-31T09:56:03;95469.64;;;27.71;40.57
17373;BME280;8803;48.116;11.590;2023-07-31T10:00:21;95467.86;;;27.79;40.20
17373;BME280;8803;48.116;11.590;2023-07-31T10:02:27;95461.22;;;27.75;40.06
17373;BME280;8803;48.116;11.590;2023-07-31T10:06:44;95452.96;;;27.89;40.17
17373;BME280;8803;48.116;11.590;2023-07-31T10:08:51;95453.75;;;27.87;40.12
17373;BME280;8803;48.116;11.590;2023-07-31T10:10:55;95452.64;;;27.86;40.41
17373;BME280;8803;48.116;11.590;2023-07-31T10:13:01;95448.81;;;27.87;40.17
17373;BME280;8803;48.116;11.590;2023-07-31T10:15:07;95445.01;;;27.88;40.14
17373;BME280;8803;48.116;11.590;2023-07-31T10:19:25;95426.69;;;27.88;40.31
17373;BME280;8803;48.116;11.590;2023-07-31T10:21:30;95418.17;;;27.87;39.92
17373;BME280;8803;48.116;11.590;2023-07-31T10:25:48;95407.89;;;27.94;39.32
17373;BME280;8803;48.116;11.590;2023-07-31T10:27:53;95408.55;;;27.66;38.90
17373;BME280;8803;48.116;11.590;2023-07-31T10:29:58;95410.65;;;27.78;39.61
17373;BME280;8803;48.116;11.590;2023-07-31T10:32:03;95409.70;;;27.70;38.77
17373;BME280;8803;48.116;11.590;2023-07-31T10:36:21;95402.77;;;27.65;39.08
17373;BME280;8803;48.116;11.590;2023-07-31T10:38:25;95407.92;;;27.61;39.64
17373;BME280;8803;48.116;11.590;2023-07-31T10:42:47;95395.25;;;27.58;38.84
17373;BME280;8803;48.116;11.590;2023-07-31T10:44:53;95403.09;;;27.52;38.77
17373;BME280;8803;48.116;11.590;2023-07-31T10:46:58;95404.98;;;27.49;38.89
17373;BME280;8803;48.116;11.590;2023-07-31T10:51:16;95402.19;;;27.46;39.20
17373;BME280;8803;48.116;11.590;2023-07-31T10:55:42;95403.30;;;27.48;39.29
17373;BME280;8803;48.116;11.590;2023-07-31T11:00:19;95407.08;;;27.44;38.66
17373;BME280;8803;48.116;11.590;2023-07-31T11:02:27;95400.93;;;27.37;38.64
17373;BME280;8803;48.116;11.590;2023-07-31T11:04:32;95395.46;;;27.37;38.79
17373;BME280;8803;48.116;11.590;2023-07-31T11:08:51;95383.28;;;27.30;38.62
17373;BME280;8803;48.116;11.590;2023-07-31T11:13:19;95375.64;;;27.16;38.41
17373;BME280;8803;48.116;11.590;2023-07-31T11:15:23;95378.84;;;27.10;38.51
17373;BME280;8803;48.116;11.590;2023-07-31T11:19:42;95373.67;;;26.97;38.98
17373;BME280;8803;48.116;11.590;2023-07-31T11:21:45;95374.80;;;26.85;39.12
17373;BME280;8803;48.116;11.590;2023-07-31T11:23:50;95375.25;;;26.79;39.54
17373;BME280;8803;48.116;11.590;2023-07-31T11:25:59;95378.57;;;26.70;39.43
17373;BME280;8803;48.116;11.590;2023-07-31T11:28:05;95380.44;;;26.67;39.44
17373;BME280;8803;48.116;11.590;2023-07-31T11:30:11;95379.80;;;26.62;39.62
17373;BME280;8803;48.116;11.590;2023-07-31T11:32:17;95372.44;;;26.63;39.77
17373;BME280;8803;48.116;11.590;2023-07-31T11:36:34;95351.51;;;26.68;39.81
17373;BME280;8803;48.116;11.590;2023-07-31T11:38:38;95358.59;;;26.67;39.90
17373;BME280;8803;48.116;11.590;2023-07-31T11:40:45;95354.49;;;26.67;40.06
17373;BME280;8803;48.116;11.590;2023-07-31T11:42:49;95349.23;;;26.63;40.16
17373;BME280;8803;48.116;11.590;2023-07-31T11:44:53;95342.98;;;26.65;40.63
17373;BME280;8803;48.116;11.590;2023-07-31T11:46:58;95346.49;;;26.63;40.25
17373;BME280;8803;48.116;11.590;2023-07-31T11:49:03;95338.30;;;26.63;40.12
17373;BME280;8803;48.116;11.590;2023-07-31T11:51:09;95336.77;;;26.55;39.94
17373;BME280;8803;48.116;11.590;2023-07-31T11:53:14;95333.40;;;26.50;40.01
17373;BME280;8803;48.116;11.590;2023-07-31T11:55:19;95330.39;;;26.49;40.80
17373;BME280;8803;48.116;11.590;2023-07-31T11:57:24;95327.61;;;26.47;40.59
17373;BME280;8803;48.116;11.590;2023-07-31T12:01:41;95308.63;;;26.40;40.81
17373;BME280;8803;48.116;11.590;2023-07-31T12:03:46;95316.77;;;26.38;40.71
17373;BME280;8803;48.116;11.590;2023-07-31T12:05:50;95304.73;;;26.36;40.89
17373;BME280;8803;48.116;11.590;2023-07-31T12:07:55;95310.47;;;26.23;40.92
17373;BME280;8803;48.116;11.590;2023-07-31T12:10:00;95293.31;;;26.25;41.00
17373;BME280;8803;48.116;11.590;2023-07-31T12:12:09;95301.45;;;26.23;40.76
17373;BME280;8803;48.116;11.590;2023-07-31T12:14:21;95301.50;;;26.25;40.81
17373;BME280;8803;48.116;11.590;2023-07-31T12:16:28;95293.23;;;26.20;40.94
17373;BME280;8803;48.116;11.590;2023-07-31T12:20:47;95278.94;;;26.16;40.61
17373;BME280;8803;48.116;11.590;2023-07-31T12:22:51;95279.97;;;26.12;40.71
17373;BME280;8803;48.116;11.590;2023-07-31T12:27:14;95274.59;;;26.17;40.81
17373;BME280;8803;48.116;11.590;2023-07-31T12:29:18;95275.87;;;26.12;40.48
17373;BME280;8803;48.116;11.590;2023-07-31T12:31:22;95266.41;;;26.17;40.47
17373;BME280;8803;48.116;11.590;2023-07-31T12:33:31;95270.03;;;26.20;40.18
17373;BME280;8803;48.116;11.590;2023-07-31T12:35:40;95266.80;;;26.23;39.89
17373;BME280;8803;48.116;11.590;2023-07-31T12:39:55;95256.03;;;26.45;39.60
17373;BME280;8803;48.116;11.590;2023-07-31T12:42:01;95249.55;;;26.34;39.01
17373;BME280;8803;48.116;11.590;2023-07-31T12:44:05;95248.09;;;26.43;39.13
17373;BME280;8803;48.116;11.590;2023-07-31T12:46:09;95249.91;;;26.54;39.73
17373;BME280;8803;48.116;11.590;2023-07-31T12:48:13;95244.60;;;26.62;39.65
17373;BME280;8803;48.116;11.590;2023-07-31T12:50:17;95241.55;;;26.73;39.77
17373;BME280;8803;48.116;11.590;2023-07-31T12:54:32;95236.55;;;26.84;39.51
17373;BME280;8803;48.116;11.590;2023-07-31T12:56:37;95230.09;;;26.73;38.79
17373;BME280;8803;48.116;11.590;2023-07-31T12:58:41;95236.66;;;26.75;39.51
17373;BME280;8803;48.116;11.590;2023-07-31T13:00:45;95231.06;;;26.70;39.32
17373;BME280;8803;48.116;11.590;2023-07-31T13:02:49;95231.78;;;26.63;39.31
17373;BME280;8803;48.116;11.590;2023-07-31T13:04:52;95232.64;;;26.66;39.48
17373;BME280;8803;48.116;11.590;2023-07-31T13:06:56;95230.42;;;26.63;39.40
17373;BME280;8803;48.116;11.590;2023-07-31T13:09:00;95236.98;;;26.64;39.42
17373;BME280;8803;48.116;11.590;2023-07-31T13:11:04;95239.67;;;26.61;39.46
17373;BME280;8803;48.116;11.590;2023-07-31T13:13:08;95230.63;;;26.58;39.31
17373;BME280;8803;48.116;11.590;2023-07-31T13:15:13;95230.11;;;26.61;39.30
17373;BME280;8803;48.116;11.590;2023-07-31T13:19:30;95232.20;;;26.71;39.37
17373;BME280;8803;48.116;11.590;2023-07-31T13:21:34;95234.33;;;26.69;39.01
17373;BME280;8803;48.116;11.590;2023-07-31T13:23:39;95227.89;;;26.73;39.17
17373;BME280;8803;48.116;11.590;2023-07-31T13:25:42;95231.15;;;26.72;38.95
17373;BME280;8803;48.116;11.590;2023-07-31T13:27:47;95221.28;;;26.71;38.91
17373;BME280;8803;48.116;11.590;2023-07-31T13:29:51;95217.48;;;26.72;39.15
17373;BME280;8803;48.116;11.590;2023-07-31T13:31:55;95220.27;;;26.75;39.25
17373;BME280;8803;48.116;11.590;2023-07-31T13:33:59;95221.33;;;26.74;39.07